createdAt,value
2019-04-23T00:02:23.304Z,3.60
2019-04-23T00:04:52.812Z,3.80
2019-04-23T00:07:35.555Z,4.47
2019-04-23T00:09:59.297Z,4.13
2019-04-23T00:12:38.094Z,4.37
2019-04-23T00:15:04.855Z,4.70
2019-04-23T00:17:30.452Z,4.67
2019-04-23T00:20:00.722Z,4.30
2019-04-23T00:22:31.253Z,4.33
2019-04-23T00:27:37.168Z,4.60
2019-04-23T00:29:56.456Z,3.93
2019-04-23T00:32:28.635Z,4.17
2019-04-23T00:35:00.784Z,4.37
2019-04-23T00:39:52.517Z,4.57
2019-04-23T00:44:51.570Z,4.83
2019-04-23T00:47:25.708Z,4.80
2019-04-23T00:50:02.026Z,4.27
2019-04-23T00:54:58.079Z,4.97
2019-04-23T00:57:25.812Z,5.07
2019-04-23T00:59:53.714Z,4.90
2019-04-23T01:02:18.082Z,5.33
2019-04-23T01:04:49.676Z,5.03
2019-04-23T01:07:16.395Z,4.97
2019-04-23T01:09:56.174Z,4.47
2019-04-23T01:12:14.037Z,5.07
2019-04-23T01:14:44.409Z,5.10
2019-04-23T01:17:17.322Z,5.10
2019-04-23T01:21:55.851Z,5.40
2019-04-23T01:24:47.879Z,5.30
2019-04-23T01:30:17.903Z,5.70
2019-04-23T01:32:38.113Z,5.90
2019-04-23T01:35:17.479Z,5.50
2019-04-23T01:37:36.934Z,6.20
2019-04-23T01:40:26.567Z,5.37
2019-04-23T01:42:40.658Z,6.40
2019-04-23T01:45:07.057Z,5.83
2019-04-23T01:47:36.945Z,6.13
2019-04-23T01:50:09.699Z,5.73
2019-04-23T01:52:31.907Z,5.80
2019-04-23T01:55:02.543Z,6.20
2019-04-23T01:57:31.129Z,6.47
2019-04-23T02:00:04.527Z,5.67
2019-04-23T02:02:29.806Z,6.40
2019-04-23T02:05:01.361Z,5.87
2019-04-23T02:07:29.681Z,6.07
2019-04-23T02:09:55.604Z,6.53
2019-04-23T02:12:18.059Z,6.97
2019-04-23T02:14:50.363Z,6.23
2019-04-23T02:17:22.611Z,6.27
2019-04-23T02:19:51.361Z,6.40
2019-04-23T02:22:56.244Z,6.40
2019-04-23T02:25:35.317Z,6.13
2019-04-23T02:27:54.094Z,6.63
2019-04-23T02:30:40.082Z,6.60
2019-04-23T02:32:59.268Z,6.40
2019-04-23T02:35:38.638Z,6.73
2019-04-23T02:40:33.300Z,6.93
2019-04-23T02:43:01.666Z,6.90
2019-04-23T02:45:16.771Z,6.40
2019-04-23T02:50:32.933Z,7.07
2019-04-23T02:52:48.841Z,6.73
2019-04-23T03:02:45.110Z,6.90
2019-04-23T03:05:00.858Z,7.23
2019-04-23T03:07:41.121Z,6.93
2019-04-23T03:12:46.942Z,6.80
2019-04-23T03:15:21.863Z,7.10
2019-04-23T03:20:57.466Z,7.27
2019-04-23T03:23:32.009Z,7.40
2019-04-23T03:25:58.266Z,7.37
2019-04-23T03:28:38.170Z,6.90
2019-04-23T03:32:37.887Z,7.27
2019-04-23T03:38:43.137Z,7.30
2019-04-23T03:40:56.832Z,7.53
2019-04-23T03:43:26.179Z,7.50
2019-04-23T03:46:12.157Z,7.63
2019-04-23T03:48:28.020Z,6.67
2019-04-23T03:53:29.929Z,7.10
2019-04-23T03:58:18.711Z,7.47
2019-04-23T04:13:15.820Z,7.23
2019-04-23T04:15:55.640Z,8.70
2019-04-23T04:21:01.178Z,6.80
2019-04-23T04:25:49.889Z,9.17
2019-04-23T04:30:49.454Z,9.20
2019-04-23T04:35:47.537Z,8.97
2019-04-23T04:40:55.163Z,8.13
2019-04-23T04:48:18.095Z,9.30
2019-04-23T04:50:55.584Z,8.97
2019-04-23T04:55:45.104Z,8.83
2019-04-23T04:58:35.161Z,8.23
2019-04-23T05:06:06.444Z,8.17
2019-04-23T05:08:21.663Z,7.83
2019-04-23T05:10:51.649Z,8.40
2019-04-23T05:13:35.322Z,7.90
2019-04-23T05:15:44.287Z,8.27
2019-04-23T05:20:53.178Z,8.23
2019-04-23T05:25:44.636Z,8.87
2019-04-23T05:28:12.633Z,8.50
2019-04-23T05:30:44.621Z,8.90
2019-04-23T05:36:08.980Z,8.30
2019-04-23T05:38:22.759Z,8.60
2019-04-23T05:43:08.119Z,8.67
2019-04-23T05:45:39.957Z,8.17
2019-04-23T05:50:52.706Z,8.10
2019-04-23T05:53:14.876Z,8.93
2019-04-23T05:55:34.026Z,7.53
2019-04-23T05:58:04.562Z,8.20
2019-04-23T06:00:39.833Z,8.20
2019-04-23T06:03:09.855Z,8.43
2019-04-23T06:05:34.258Z,8.87
2019-04-23T06:08:03.335Z,8.87
2019-04-23T06:10:29.057Z,9.17
2019-04-23T06:12:59.670Z,8.53
2019-04-23T06:15:26.778Z,8.23
2019-04-23T06:17:54.139Z,8.23
2019-04-23T06:20:31.504Z,8.20
2019-04-23T06:23:01.176Z,7.17
2019-04-23T06:25:47.803Z,8.97
2019-04-23T06:27:57.546Z,5.90
2019-04-23T06:30:28.825Z,8.60
2019-04-23T06:32:52.305Z,8.37
2019-04-23T06:35:25.572Z,8.53
2019-04-23T06:38:14.397Z,7.43
2019-04-23T06:40:21.820Z,7.83
2019-04-23T06:42:57.941Z,7.63
2019-04-23T06:45:22.515Z,8.97
2019-04-23T06:47:54.183Z,7.70
2019-04-23T06:50:23.977Z,8.03
2019-04-23T06:52:50.713Z,8.03
2019-04-23T06:55:20.368Z,8.23
2019-04-23T06:57:48.074Z,7.93
2019-04-23T07:00:23.943Z,8.50
2019-04-23T07:02:44.251Z,8.57
2019-04-23T07:05:24.791Z,8.43
2019-04-23T07:10:20.051Z,8.40
2019-04-23T07:15:30.422Z,8.03
2019-04-23T07:17:42.766Z,8.47
2019-04-23T07:20:13.129Z,8.23
2019-04-23T07:22:45.625Z,8.03
2019-04-23T07:25:14.101Z,7.47
2019-04-23T07:27:39.378Z,7.80
2019-04-23T07:30:13.598Z,7.77
2019-04-23T07:32:43.359Z,8.15
2019-04-23T07:37:50.239Z,7.03
2019-04-23T07:40:35.984Z,8.07
2019-04-23T07:43:32.240Z,7.83
2019-04-23T07:46:33.240Z,7.55
2019-04-23T07:48:47.669Z,7.72
2019-04-23T07:51:19.481Z,7.60
2019-04-23T07:54:07.948Z,7.62
2019-04-23T07:56:23.335Z,6.80
2019-04-23T07:58:51.162Z,7.87
2019-04-23T08:01:25.174Z,7.60
2019-04-23T08:03:48.193Z,7.45
2019-04-23T08:06:12.073Z,6.58
2019-04-23T08:08:47.484Z,6.28
2019-04-23T08:13:47.348Z,6.97
2019-04-23T08:16:23.338Z,5.67
2019-04-23T08:18:45.289Z,6.85
2019-04-23T08:21:12.292Z,6.08
2019-04-23T08:24:17.102Z,6.72
2019-04-23T08:27:13.074Z,6.97
2019-04-23T08:29:43.881Z,7.33
2019-04-23T08:32:19.450Z,7.03
2019-04-23T08:34:57.541Z,6.72
2019-04-23T08:37:27.288Z,5.83
2019-04-23T08:45:07.522Z,6.35
2019-04-23T08:47:29.883Z,5.72
2019-04-23T08:50:18.805Z,7.00
2019-04-23T08:52:25.582Z,6.42
2019-04-23T08:57:27.339Z,6.65
2019-04-23T08:59:56.011Z,5.65
2019-04-23T09:02:37.443Z,6.55
2019-04-23T09:04:54.244Z,5.65
2019-04-23T09:07:21.974Z,6.30
2019-04-23T09:12:26.330Z,5.95
2019-04-23T09:14:51.140Z,4.78
2019-04-23T09:17:24.777Z,6.10
2019-04-23T09:27:16.292Z,6.12
2019-04-23T09:29:49.121Z,5.05
2019-04-23T09:32:36.708Z,5.72
2019-04-23T09:35:14.343Z,5.90
2019-04-23T09:41:04.615Z,4.65
2019-04-23T09:46:12.029Z,4.95
2019-04-23T09:48:35.430Z,5.40
2019-04-23T09:51:02.642Z,5.22
2019-04-23T09:55:51.576Z,4.03
2019-04-23T09:58:23.843Z,5.17
2019-04-23T10:01:20.792Z,3.87
2019-04-23T10:03:33.994Z,4.30
2019-04-23T10:05:57.237Z,4.90
2019-04-23T10:08:27.433Z,4.20
2019-04-23T10:10:49.110Z,5.37
2019-04-23T10:13:16.070Z,4.03
2019-04-23T10:15:46.734Z,4.90
2019-04-23T10:18:14.434Z,4.90
2019-04-23T10:20:42.716Z,4.90
2019-04-23T10:23:10.357Z,4.53
2019-04-23T10:25:38.409Z,4.40
2019-04-23T10:28:10.924Z,3.90
2019-04-23T10:30:38.517Z,4.33
2019-04-23T10:33:05.684Z,4.87
2019-04-23T10:35:41.410Z,3.92
2019-04-23T10:38:08.175Z,4.80
2019-04-23T10:40:36.462Z,4.67
2019-04-23T10:43:02.137Z,4.12
2019-04-23T10:45:58.019Z,4.83
2019-04-23T10:49:25.899Z,4.30
2019-04-23T10:54:25.095Z,3.62
2019-04-23T10:56:42.633Z,4.62
2019-04-23T10:59:10.640Z,3.10
2019-04-23T11:04:23.509Z,4.22
2019-04-23T11:09:27.550Z,4.25
2019-04-23T11:11:56.604Z,4.00
2019-04-23T11:14:18.345Z,4.37
2019-04-23T11:19:21.438Z,3.65
2019-04-23T11:21:40.361Z,3.92
2019-04-23T11:24:20.793Z,4.30
2019-04-23T11:26:44.250Z,4.08
2019-04-23T11:29:15.534Z,3.45
2019-04-23T11:31:43.356Z,4.00
2019-04-23T11:34:28.235Z,3.45
2019-04-23T11:39:08.451Z,3.98
2019-04-23T11:41:48.371Z,4.12
2019-04-23T11:44:13.377Z,3.72
2019-04-23T11:46:46.204Z,3.87
2019-04-23T11:49:34.539Z,3.90
2019-04-23T11:51:49.007Z,3.17
2019-04-23T11:54:03.415Z,3.60
2019-04-23T11:57:04.524Z,3.65
2019-04-23T11:59:13.469Z,3.45
2019-04-23T12:02:07.159Z,3.77
2019-04-23T12:05:02.312Z,3.22
2019-04-23T12:08:09.250Z,3.25
2019-04-23T12:10:30.011Z,4.00
2019-04-23T12:12:44.925Z,3.65
2019-04-23T12:15:26.766Z,3.62
2019-04-23T12:17:50.882Z,4.20
2019-04-23T12:20:23.039Z,3.80
2019-04-23T12:22:57.378Z,3.72
2019-04-23T12:25:42.362Z,3.55
2019-04-23T12:27:44.062Z,3.80
2019-04-23T12:30:27.570Z,3.67
2019-04-23T12:32:59.359Z,3.00
2019-04-23T12:35:19.193Z,4.25
2019-04-23T12:38:07.164Z,3.98
2019-04-23T12:40:52.678Z,4.00
2019-04-23T12:43:13.300Z,3.42
2019-04-23T12:45:37.536Z,2.83
2019-04-23T12:48:11.280Z,3.50
2019-04-23T12:53:23.608Z,3.27
2019-04-23T12:55:50.547Z,2.60
2019-04-23T12:58:37.790Z,3.50
2019-04-23T13:00:57.960Z,2.87
2019-04-23T13:03:32.929Z,3.77
2019-04-23T13:06:01.081Z,2.77
2019-04-23T13:09:16.261Z,3.30
2019-04-23T13:11:44.491Z,3.90
2019-04-23T13:14:20.416Z,3.37
2019-04-23T13:16:44.726Z,3.15
2019-04-23T13:19:16.149Z,3.20
2019-04-23T13:22:00.190Z,3.37
2019-04-23T13:24:17.181Z,2.92
2019-04-23T13:26:46.538Z,3.77
2019-04-23T13:29:42.906Z,3.20
2019-04-23T13:31:59.009Z,3.60
2019-04-23T13:34:37.496Z,3.70
2019-04-23T13:36:53.885Z,3.33
2019-04-23T13:39:28.984Z,2.85
2019-04-23T13:41:52.263Z,2.55
2019-04-23T13:44:15.757Z,3.58
2019-04-23T13:46:50.981Z,2.55
2019-04-23T13:49:18.020Z,2.90
2019-04-23T13:51:50.817Z,3.27
2019-04-23T13:54:27.880Z,2.98
2019-04-23T13:59:30.285Z,2.60
2019-04-23T14:04:45.237Z,2.52
2019-04-23T14:07:17.350Z,3.25
2019-04-23T14:09:45.542Z,2.95
2019-04-23T14:12:10.678Z,3.10
2019-04-23T14:14:52.141Z,3.22
2019-04-23T14:17:18.695Z,2.80
2019-04-23T14:19:35.731Z,3.08
2019-04-23T14:22:21.049Z,2.62
2019-04-23T14:24:48.316Z,3.15
2019-04-23T14:27:09.673Z,3.30
2019-04-23T14:29:41.461Z,3.33
2019-04-23T14:32:15.627Z,2.95
2019-04-23T14:34:58.532Z,2.45
2019-04-23T14:37:12.783Z,3.00
2019-04-23T14:39:40.140Z,2.90
2019-04-23T14:42:21.375Z,3.65
2019-04-23T14:45:00.578Z,2.90
2019-04-23T14:47:38.000Z,2.65
2019-04-23T14:50:22.863Z,2.45
2019-04-23T14:52:38.831Z,2.65
2019-04-23T15:00:03.298Z,3.10
2019-04-23T15:05:09.657Z,3.00
2019-04-23T15:07:27.945Z,3.37
2019-04-23T15:10:01.115Z,3.08
2019-04-23T15:15:02.871Z,3.20
2019-04-23T15:17:20.288Z,3.02
2019-04-23T15:19:55.193Z,3.25
2019-04-23T15:22:20.334Z,3.30
2019-04-23T15:25:06.906Z,3.40
2019-04-23T15:29:39.296Z,2.12
2019-04-23T15:32:26.984Z,2.70
2019-04-23T15:35:03.194Z,2.47
2019-04-23T15:37:34.621Z,2.65
2019-04-23T15:39:58.770Z,2.65
2019-04-23T15:44:48.489Z,3.40
2019-04-23T15:47:18.740Z,2.90
2019-04-23T15:49:45.126Z,3.27
2019-04-23T15:52:11.028Z,3.87
2019-04-23T15:54:50.916Z,3.40
2019-04-23T15:57:07.188Z,3.50
2019-04-23T15:59:42.003Z,3.90
2019-04-23T16:01:43.688Z,3.60
2019-04-23T16:04:14.585Z,3.83
2019-04-23T16:06:45.624Z,2.95
2019-04-23T16:09:38.780Z,3.87
2019-04-23T16:12:05.631Z,4.55
2019-04-23T16:14:47.953Z,3.87
2019-04-23T16:17:13.833Z,4.75
2019-04-23T16:19:57.808Z,3.27
2019-04-23T16:22:20.423Z,3.85
2019-04-23T16:24:55.836Z,3.95
2019-04-23T16:27:15.046Z,3.55
2019-04-23T16:30:00.130Z,4.35
2019-04-23T16:32:20.859Z,3.52
2019-04-23T16:34:44.763Z,3.80
2019-04-23T16:39:55.903Z,4.00
2019-04-23T16:44:59.608Z,4.62
2019-04-23T16:47:18.669Z,4.53
2019-04-23T16:49:51.156Z,4.58
2019-04-23T16:52:20.103Z,4.45
2019-04-23T16:54:50.599Z,4.65
2019-04-23T16:59:51.488Z,5.05
2019-04-23T17:02:14.824Z,4.28
2019-04-23T17:04:38.896Z,4.87
2019-04-23T17:14:33.015Z,4.35
2019-04-23T17:16:53.414Z,4.53
2019-04-23T17:19:41.011Z,4.58
2019-04-23T17:27:03.867Z,4.25
2019-04-23T17:29:28.253Z,4.50
2019-04-23T17:32:07.125Z,4.70
2019-04-23T17:34:40.463Z,4.72
2019-04-23T17:37:17.778Z,4.90
2019-04-23T17:42:40.139Z,5.25
2019-04-23T17:48:11.807Z,4.90
2019-04-23T17:51:02.930Z,5.10
2019-04-23T17:53:11.098Z,6.47
2019-04-23T17:55:59.114Z,4.90
2019-04-23T17:58:22.419Z,5.00
2019-04-23T18:03:04.520Z,5.85
2019-04-23T18:05:40.818Z,4.78
2019-04-23T18:08:09.949Z,5.03
2019-04-23T18:10:51.618Z,5.37
2019-04-23T18:13:17.242Z,6.10
2019-04-23T18:15:41.330Z,5.92
2019-04-23T18:18:10.092Z,5.67
2019-04-23T18:20:37.648Z,5.80
2019-04-23T18:25:46.003Z,5.97
2019-04-23T18:28:22.597Z,5.90
2019-04-23T18:31:05.875Z,5.25
2019-04-23T18:36:03.267Z,5.78
2019-04-23T18:38:41.575Z,5.78
2019-04-23T18:41:05.291Z,6.20
2019-04-23T18:46:30.577Z,5.97
2019-04-23T18:53:48.463Z,6.58
2019-04-23T18:58:48.602Z,6.58
2019-04-23T19:01:12.153Z,6.92
2019-04-23T19:09:24.706Z,7.28
2019-04-23T19:12:28.261Z,7.15
2019-04-23T19:14:56.075Z,6.05
2019-04-23T19:19:48.046Z,6.22
2019-04-23T19:27:35.240Z,6.37
2019-04-23T19:32:08.873Z,6.65
2019-04-23T19:39:43.484Z,6.70
2019-04-23T19:42:10.309Z,6.92
2019-04-23T19:47:10.759Z,6.90
2019-04-23T19:49:37.014Z,7.33
2019-04-23T19:52:46.111Z,7.00
2019-04-23T19:54:43.770Z,6.35
2019-04-23T19:57:15.198Z,6.53
2019-04-23T19:59:44.441Z,7.80
2019-04-23T20:02:07.327Z,7.47
2019-04-23T20:04:39.181Z,6.47
2019-04-23T20:07:12.263Z,7.15
2019-04-23T20:12:00.735Z,7.10
2019-04-23T20:14:37.780Z,6.95
2019-04-23T20:17:21.330Z,7.97
2019-04-23T20:30:23.454Z,8.58
2019-04-23T20:32:16.911Z,8.60
2019-04-23T20:35:07.244Z,7.97
2019-04-23T20:37:59.510Z,7.78
2019-04-23T20:40:04.203Z,7.78
2019-04-23T20:44:58.968Z,8.10
2019-04-23T20:50:03.731Z,8.88
2019-04-23T20:52:13.764Z,7.65
2019-04-23T21:00:12.297Z,8.00
2019-04-23T21:05:26.467Z,9.73
2019-04-23T21:08:29.245Z,7.67
2019-04-23T21:10:37.367Z,8.77
2019-04-23T21:18:13.969Z,8.83
2019-04-23T21:20:36.648Z,9.63
2019-04-23T21:39:04.046Z,9.03
2019-04-23T21:44:11.937Z,8.95
2019-04-23T21:46:45.308Z,9.67
2019-04-23T21:53:58.885Z,10.40
2019-04-23T21:56:37.165Z,9.63
2019-04-23T21:59:10.483Z,10.30
2019-04-23T22:04:25.681Z,9.87
2019-04-23T22:09:10.995Z,8.90
2019-04-23T22:14:13.071Z,9.93
2019-04-23T22:16:40.943Z,10.00
2019-04-23T22:19:10.582Z,9.83
2019-04-23T22:21:41.155Z,9.47
2019-04-23T22:26:35.204Z,10.10
2019-04-23T22:34:02.293Z,9.20
2019-04-23T22:36:23.537Z,10.60
2019-04-23T22:38:59.457Z,10.30
2019-04-23T22:41:32.032Z,10.40
2019-04-23T22:44:02.413Z,10.43
2019-04-23T22:46:24.374Z,10.73
2019-04-23T22:49:07.152Z,10.17
2019-04-23T22:51:31.311Z,9.40
2019-04-23T22:53:58.605Z,9.20
2019-04-23T22:56:25.849Z,10.00
2019-04-23T22:59:03.479Z,10.13
2019-04-23T23:01:26.642Z,10.13
2019-04-23T23:04:00.122Z,10.30
2019-04-23T23:06:36.850Z,9.73
2019-04-23T23:09:10.173Z,9.93
2019-04-23T23:11:16.855Z,10.63
2019-04-23T23:14:10.208Z,10.73
2019-04-23T23:16:14.482Z,9.90
2019-04-23T23:18:52.415Z,10.73
2019-04-23T23:23:48.126Z,11.17
2019-04-23T23:26:21.968Z,11.68
2019-04-23T23:31:13.249Z,10.43
2019-04-23T23:33:47.177Z,10.40
2019-04-23T23:36:12.426Z,10.47
2019-04-23T23:38:51.074Z,11.23
2019-04-23T23:41:26.556Z,11.17
2019-04-23T23:43:41.291Z,10.23
2019-04-23T23:48:35.732Z,11.30
2019-04-23T23:53:51.652Z,10.23
2019-04-23T23:56:15.856Z,10.70
2019-04-23T23:58:43.692Z,11.23
